createdAt,value
2018-05-12T00:01:14.092Z,85.25
2018-05-12T00:03:41.624Z,85.12
2018-05-12T00:06:09.099Z,85.31
2018-05-12T00:08:36.619Z,85.47
2018-05-12T00:11:04.088Z,85.82
2018-05-12T00:13:31.561Z,85.86
2018-05-12T00:15:59.087Z,85.62
2018-05-12T00:18:29.930Z,85.56
2018-05-12T00:20:57.515Z,85.62
2018-05-12T00:23:24.982Z,85.58
2018-05-12T00:25:52.482Z,85.80
2018-05-12T00:28:19.966Z,85.75
2018-05-12T00:30:47.546Z,85.79
2018-05-12T00:33:15.114Z,85.89
2018-05-12T00:35:42.594Z,86.00
2018-05-12T00:38:10.054Z,85.77
2018-05-12T00:40:37.578Z,85.41
2018-05-12T00:43:05.192Z,85.11
2018-05-12T00:45:32.666Z,85.07
2018-05-12T00:48:00.170Z,85.22
2018-05-12T00:50:27.726Z,85.44
2018-05-12T00:52:55.199Z,85.71
2018-05-12T00:55:22.687Z,85.89
2018-05-12T00:57:50.179Z,85.94
2018-05-12T01:00:17.755Z,85.82
2018-05-12T01:02:45.291Z,85.74
2018-05-12T01:05:12.787Z,85.77
2018-05-12T01:07:40.257Z,85.74
2018-05-12T01:10:07.750Z,85.61
2018-05-12T01:12:35.250Z,85.64
2018-05-12T01:15:02.719Z,86.04
2018-05-12T01:17:30.266Z,86.36
2018-05-12T01:19:57.738Z,86.64
2018-05-12T01:22:25.257Z,86.65
2018-05-12T01:24:52.758Z,86.68
2018-05-12T01:27:20.303Z,86.91
2018-05-12T01:29:47.786Z,87.25
2018-05-12T01:32:15.419Z,87.28
2018-05-12T01:34:42.889Z,87.24
2018-05-12T01:37:10.379Z,87.28
2018-05-12T01:39:37.849Z,87.44
2018-05-12T01:42:05.415Z,87.33
2018-05-12T01:44:32.890Z,87.07
2018-05-12T01:47:00.470Z,86.89
2018-05-12T01:49:28.035Z,87.04
2018-05-12T01:51:55.588Z,87.14
2018-05-12T01:54:23.158Z,87.50
2018-05-12T01:56:50.642Z,87.62
2018-05-12T01:59:18.123Z,87.59
2018-05-12T02:01:45.736Z,87.60
2018-05-12T02:04:13.330Z,87.64
2018-05-12T02:06:41.913Z,87.72
2018-05-12T02:09:09.530Z,87.99
2018-05-12T02:11:37.019Z,88.11
2018-05-12T02:14:04.487Z,88.13
2018-05-12T02:16:31.979Z,87.81
2018-05-12T02:18:59.469Z,87.45
2018-05-12T02:21:27.031Z,86.39
2018-05-12T02:23:54.586Z,85.67
2018-05-12T02:26:22.077Z,85.30
2018-05-12T02:28:49.598Z,84.82
2018-05-12T02:31:17.162Z,84.89
2018-05-12T02:33:44.651Z,84.96
2018-05-12T02:36:12.111Z,85.13
2018-05-12T02:38:39.640Z,85.02
2018-05-12T02:41:07.106Z,84.90
2018-05-12T02:43:34.656Z,84.87
2018-05-12T02:46:02.217Z,85.18
2018-05-12T02:48:29.724Z,85.66
2018-05-12T02:50:57.242Z,86.19
2018-05-12T02:53:24.791Z,86.74
2018-05-12T02:55:52.250Z,86.99
2018-05-12T02:58:19.748Z,87.29
2018-05-12T03:00:47.223Z,87.42
2018-05-12T03:03:14.754Z,87.42
2018-05-12T03:05:42.214Z,87.38
2018-05-12T03:08:09.746Z,87.58
2018-05-12T03:10:37.222Z,87.63
2018-05-12T03:13:04.764Z,87.78
2018-05-12T03:15:32.317Z,87.98
2018-05-12T03:17:59.798Z,88.13
2018-05-12T03:20:27.254Z,88.16
2018-05-12T03:22:54.794Z,88.12
2018-05-12T03:25:22.399Z,88.21
2018-05-12T03:27:49.926Z,88.52
2018-05-12T03:30:17.483Z,88.81
2018-05-12T03:32:44.956Z,88.92
2018-05-12T03:35:12.448Z,88.81
2018-05-12T03:37:39.930Z,88.78
2018-05-12T03:40:07.615Z,88.62
2018-05-12T03:42:35.087Z,88.58
2018-05-12T03:45:02.634Z,88.44
2018-05-12T03:47:30.206Z,88.09
2018-05-12T03:49:57.694Z,87.94
2018-05-12T03:52:25.214Z,87.50
2018-05-12T03:54:52.698Z,86.98
2018-05-12T03:57:20.178Z,86.51
2018-05-12T03:59:47.682Z,86.30
2018-05-12T04:02:15.250Z,86.20
2018-05-12T04:08:00.360Z,86.44
2018-05-12T04:10:39.883Z,86.33
2018-05-12T04:13:07.357Z,86.45
2018-05-12T04:15:34.849Z,86.72
2018-05-12T04:18:02.355Z,86.72
2018-05-12T04:20:29.846Z,86.86
2018-05-12T04:22:57.323Z,86.59
2018-05-12T04:25:24.818Z,86.20
2018-05-12T04:27:52.291Z,86.01
2018-05-12T04:30:19.847Z,86.18
2018-05-12T04:32:47.406Z,86.03
2018-05-12T04:35:14.978Z,85.46
2018-05-12T04:37:42.457Z,86.04
2018-05-12T04:40:09.947Z,85.83
2018-05-12T04:42:37.446Z,85.54
2018-05-12T04:45:04.999Z,84.41
2018-05-12T04:47:32.498Z,84.20
2018-05-12T04:49:59.996Z,84.34
2018-05-12T04:52:27.466Z,82.83
2018-05-12T04:54:54.948Z,82.08
2018-05-12T04:57:22.490Z,81.48
2018-05-12T04:59:50.237Z,80.02
2018-05-12T05:02:17.698Z,79.28
2018-05-12T05:04:45.192Z,78.62
2018-05-12T05:07:12.662Z,78.21
2018-05-12T05:09:40.150Z,77.37
2018-05-12T05:12:07.715Z,76.85
2018-05-12T05:14:35.203Z,76.69
2018-05-12T05:17:02.763Z,76.38
2018-05-12T05:19:30.332Z,75.38
2018-05-12T05:21:57.798Z,74.84
2018-05-12T05:24:25.267Z,74.66
2018-05-12T05:26:52.799Z,74.71
2018-05-12T05:29:20.262Z,75.33
2018-05-12T05:31:47.749Z,75.13
2018-05-12T05:34:15.227Z,75.43
2018-05-12T05:36:42.724Z,75.21
2018-05-12T05:39:10.215Z,75.36
2018-05-12T05:41:37.808Z,75.68
2018-05-12T05:44:05.355Z,75.37
2018-05-12T05:46:32.870Z,75.34
2018-05-12T05:49:00.434Z,75.24
2018-05-12T05:51:27.931Z,76.39
2018-05-12T05:53:55.428Z,76.19
2018-05-12T05:56:23.007Z,76.75
2018-05-12T05:58:50.475Z,76.87
2018-05-12T06:01:17.979Z,77.17
2018-05-12T06:03:45.483Z,78.23
2018-05-12T06:06:12.979Z,77.19
2018-05-12T06:08:40.452Z,77.27
2018-05-12T06:11:07.962Z,77.11
2018-05-12T06:13:35.431Z,76.10
2018-05-12T06:16:02.980Z,76.12
2018-05-12T06:18:30.534Z,75.44
2018-05-12T06:20:58.094Z,75.37
2018-05-12T06:23:25.618Z,74.89
2018-05-12T06:25:53.100Z,74.48
2018-05-12T06:28:20.585Z,74.98
2018-05-12T06:30:48.057Z,74.24
2018-05-12T06:33:15.555Z,73.17
2018-05-12T06:35:43.098Z,72.70
2018-05-12T06:38:10.703Z,72.70
2018-05-12T06:40:38.338Z,72.06
2018-05-12T06:43:05.868Z,71.39
2018-05-12T06:45:33.349Z,71.72
2018-05-12T06:48:00.844Z,71.24
2018-05-12T06:50:28.318Z,71.10
2018-05-12T06:52:55.909Z,69.98
2018-05-12T06:55:23.318Z,69.96
2018-05-12T06:57:50.866Z,69.02
2018-05-12T07:00:18.378Z,68.84
2018-05-12T07:02:45.994Z,68.21
2018-05-12T07:05:13.563Z,67.31
2018-05-12T07:07:41.123Z,66.56
2018-05-12T07:10:08.629Z,65.71
2018-05-12T07:12:36.125Z,66.14
2018-05-12T07:15:03.617Z,66.00
2018-05-12T07:17:31.106Z,65.32
2018-05-12T07:19:58.570Z,64.69
2018-05-12T07:22:26.132Z,64.02
2018-05-12T07:24:53.643Z,63.24
2018-05-12T07:27:21.137Z,62.81
2018-05-12T07:29:48.607Z,62.26
2018-05-12T07:32:16.091Z,62.04
2018-05-12T07:34:43.559Z,60.71
2018-05-12T07:37:11.147Z,60.27
2018-05-12T07:39:38.705Z,59.62
2018-05-12T07:42:06.178Z,58.99
2018-05-12T07:44:33.727Z,58.33
2018-05-12T07:47:01.285Z,58.15
2018-05-12T07:49:28.782Z,58.05
2018-05-12T07:51:56.306Z,55.82
2018-05-12T07:54:23.799Z,56.00
2018-05-12T07:56:51.326Z,55.55
2018-05-12T07:59:18.776Z,54.58
2018-05-12T08:01:46.243Z,54.46
2018-05-12T08:04:13.739Z,53.97
2018-05-12T08:06:41.219Z,54.16
2018-05-12T08:09:08.809Z,53.04
2018-05-12T08:11:36.279Z,53.52
2018-05-12T08:14:03.771Z,52.50
2018-05-12T08:16:31.256Z,50.81
2018-05-12T08:18:58.743Z,50.49
2018-05-12T08:21:26.320Z,50.07
2018-05-12T08:23:53.879Z,49.58
2018-05-12T08:26:21.427Z,49.22
2018-05-12T08:28:48.918Z,49.99
2018-05-12T08:31:16.378Z,49.54
2018-05-12T08:33:43.863Z,49.47
2018-05-12T08:36:11.346Z,48.35
2018-05-12T08:38:38.829Z,47.27
2018-05-12T08:41:06.291Z,47.09
2018-05-12T08:43:33.790Z,45.29
2018-05-12T08:46:01.247Z,45.54
2018-05-12T08:48:28.730Z,46.08
2018-05-12T08:50:56.198Z,46.08
2018-05-12T08:53:23.658Z,46.00
2018-05-12T08:55:51.223Z,46.31
2018-05-12T08:58:18.692Z,45.47
2018-05-12T09:00:46.258Z,45.20
2018-05-12T09:03:13.722Z,43.22
2018-05-12T09:05:41.238Z,43.10
2018-05-12T09:08:08.856Z,44.23
2018-05-12T09:10:36.611Z,43.43
2018-05-12T09:13:04.139Z,42.09
2018-05-12T09:15:31.699Z,41.43
2018-05-12T09:17:59.158Z,41.47
2018-05-12T09:20:26.674Z,42.58
2018-05-12T09:22:54.170Z,41.06
2018-05-12T09:25:21.662Z,40.34
2018-05-12T09:27:49.131Z,39.95
2018-05-12T09:30:16.647Z,39.04
2018-05-12T09:32:44.211Z,38.86
2018-05-12T09:35:11.805Z,36.88
2018-05-12T09:37:39.270Z,36.09
2018-05-12T09:40:06.766Z,35.70
2018-05-12T09:42:34.311Z,36.17
2018-05-12T09:45:01.828Z,34.29
2018-05-12T09:47:29.300Z,32.35
2018-05-12T09:49:56.792Z,31.01
2018-05-12T09:52:24.269Z,31.06
2018-05-12T09:54:51.842Z,31.43
2018-05-12T09:57:19.537Z,31.14
2018-05-12T09:59:47.026Z,31.12
2018-05-12T10:02:14.487Z,30.08
2018-05-12T10:04:41.978Z,28.75
2018-05-12T10:07:09.579Z,28.54
2018-05-12T10:09:37.067Z,27.55
2018-05-12T10:12:04.570Z,27.05
2018-05-12T10:14:32.149Z,27.53
2018-05-12T10:16:59.638Z,25.92
2018-05-12T10:19:27.154Z,26.19
2018-05-12T10:21:54.690Z,25.90
2018-05-12T10:24:22.250Z,25.62
2018-05-12T10:26:49.747Z,25.28
2018-05-12T10:29:17.227Z,25.07
2018-05-12T10:31:44.756Z,24.98
2018-05-12T10:34:12.226Z,24.44
2018-05-12T10:36:39.735Z,24.94
2018-05-12T10:39:07.318Z,24.67
2018-05-12T10:41:34.896Z,25.68
2018-05-12T10:44:02.358Z,22.93
2018-05-12T10:46:29.843Z,23.84
2018-05-12T10:48:57.307Z,23.53
2018-05-12T10:51:24.798Z,24.40
2018-05-12T10:53:52.350Z,23.38
2018-05-12T10:56:19.843Z,21.06
2018-05-12T10:58:47.367Z,20.30
2018-05-12T11:01:14.968Z,21.29
2018-05-12T11:03:42.435Z,22.04
2018-05-12T11:06:09.947Z,21.07
2018-05-12T11:08:37.411Z,20.93
2018-05-12T11:11:04.962Z,20.35
2018-05-12T11:13:32.491Z,18.90
2018-05-12T11:16:00.010Z,18.54
2018-05-12T11:18:27.481Z,18.20
2018-05-12T11:20:54.964Z,17.98
2018-05-12T11:23:22.541Z,17.57
2018-05-12T11:25:50.130Z,16.70
2018-05-12T11:28:17.595Z,16.11
2018-05-12T11:30:45.138Z,16.52
2018-05-12T11:33:12.694Z,16.00
2018-05-12T11:35:40.180Z,17.72
2018-05-12T11:38:07.638Z,16.06
2018-05-12T11:40:35.166Z,16.23
2018-05-12T11:43:02.634Z,16.00
2018-05-12T11:45:30.112Z,15.60
2018-05-12T11:47:57.651Z,15.77
2018-05-12T11:50:25.114Z,15.08
2018-05-12T11:52:52.606Z,14.82
2018-05-12T11:55:20.078Z,15.28
2018-05-12T11:57:47.570Z,15.45
2018-05-12T12:00:15.031Z,14.56
2018-05-12T12:02:42.611Z,14.12
2018-05-12T12:05:10.133Z,14.53
2018-05-12T12:07:37.650Z,14.41
2018-05-12T15:59:57.360Z,18.29
2018-05-12T16:02:24.828Z,21.18
2018-05-12T16:04:52.341Z,21.07
2018-05-12T16:07:19.846Z,20.71
2018-05-12T16:09:47.348Z,20.26
2018-05-12T16:12:14.845Z,19.72
2018-05-12T16:14:42.327Z,20.58
2018-05-12T16:17:09.791Z,20.65
2018-05-12T16:19:37.287Z,21.07
2018-05-12T16:22:04.772Z,21.27
2018-05-12T16:24:32.332Z,22.06
2018-05-12T16:26:59.834Z,21.83
2018-05-12T16:29:27.323Z,23.61
2018-05-12T16:31:54.927Z,24.70
2018-05-12T16:34:22.390Z,25.69
2018-05-12T16:36:49.874Z,25.39
2018-05-12T16:39:17.370Z,27.54
2018-05-12T16:41:44.906Z,27.72
2018-05-12T16:44:12.398Z,27.82
2018-05-12T16:46:39.963Z,28.12
2018-05-12T16:49:07.417Z,29.45
2018-05-12T16:51:34.984Z,29.76
2018-05-12T16:54:02.477Z,31.05
2018-05-12T16:56:29.994Z,31.13
2018-05-12T16:58:57.477Z,31.79
2018-05-12T17:01:25.012Z,32.05
2018-05-12T17:03:52.582Z,32.44
2018-05-12T17:06:20.137Z,32.19
2018-05-12T17:08:47.690Z,32.67
2018-05-12T17:11:15.166Z,32.45
2018-05-12T17:13:42.636Z,32.97
2018-05-12T17:16:10.119Z,34.16
2018-05-12T17:18:37.623Z,34.41
2018-05-12T17:21:05.179Z,34.09
2018-05-12T17:23:32.637Z,35.63
2018-05-12T17:26:00.200Z,35.40
2018-05-12T17:28:27.764Z,36.62
2018-05-12T17:30:55.319Z,36.18
2018-05-12T17:33:22.879Z,36.38
2018-05-12T17:35:50.375Z,36.35
2018-05-12T17:38:17.844Z,36.31
2018-05-12T17:40:45.344Z,37.66
2018-05-12T17:43:12.810Z,36.98
2018-05-12T17:45:40.302Z,36.48
2018-05-12T17:48:07.788Z,37.50
2018-05-12T17:50:35.271Z,37.56
2018-05-12T17:53:02.845Z,39.22
2018-05-12T17:55:30.410Z,38.43
2018-05-12T17:57:57.926Z,38.38
2018-05-12T18:00:25.461Z,38.82
2018-05-12T18:02:52.945Z,39.24
2018-05-12T18:05:20.424Z,39.10
2018-05-12T18:07:47.954Z,39.55
2018-05-12T18:10:15.537Z,40.54
2018-05-12T18:12:43.042Z,41.14
2018-05-12T18:15:10.507Z,41.22
2018-05-12T18:17:37.987Z,41.71
2018-05-12T18:20:05.466Z,42.05
2018-05-12T18:22:32.959Z,42.72
2018-05-12T18:25:00.414Z,43.06
2018-05-12T18:27:27.939Z,43.43
2018-05-12T18:29:55.675Z,44.15
2018-05-12T18:32:23.163Z,44.58
2018-05-12T18:34:50.628Z,45.21
2018-05-12T18:37:18.118Z,45.84
2018-05-12T18:39:45.591Z,46.29
2018-05-12T18:42:13.578Z,46.37
2018-05-12T18:44:41.071Z,47.27
2018-05-12T18:47:08.646Z,48.22
2018-05-12T18:49:36.111Z,48.30
2018-05-12T18:52:03.607Z,48.69
2018-05-12T18:54:31.114Z,49.87
2018-05-12T18:56:58.634Z,50.10
2018-05-12T18:59:26.154Z,50.95
2018-05-12T19:01:53.698Z,51.40
2018-05-12T19:04:21.221Z,52.00
2018-05-12T19:06:48.742Z,52.03
2018-05-12T19:09:16.251Z,52.16
2018-05-12T19:11:43.758Z,52.07
2018-05-12T19:14:11.295Z,52.26
2018-05-12T19:16:38.793Z,52.30
2018-05-12T19:19:06.307Z,52.38
2018-05-12T19:21:33.782Z,52.44
2018-05-12T19:24:01.299Z,52.91
2018-05-12T19:26:28.790Z,53.42
2018-05-12T19:28:56.347Z,53.84
2018-05-12T19:31:23.812Z,54.41
2018-05-12T19:33:51.319Z,54.83
2018-05-12T19:36:18.823Z,54.99
2018-05-12T19:38:46.484Z,55.16
2018-05-12T19:41:14.047Z,55.36
2018-05-12T19:43:41.555Z,55.51
2018-05-12T19:46:09.071Z,55.29
2018-05-12T19:48:36.582Z,55.50
2018-05-12T19:51:07.834Z,55.45
2018-05-12T19:53:35.339Z,55.59
2018-05-12T19:56:02.838Z,55.30
2018-05-12T19:58:30.347Z,54.80
2018-05-12T20:01:01.432Z,54.41
2018-05-12T20:03:29.059Z,53.91
2018-05-12T20:05:56.565Z,53.87
2018-05-12T20:08:24.078Z,50.96
2018-05-12T20:10:53.549Z,49.74
2018-05-12T20:13:21.886Z,48.84
2018-05-12T20:15:49.440Z,48.29
2018-05-12T20:18:16.966Z,48.30
2018-05-12T20:20:44.446Z,48.69
2018-05-12T20:23:11.931Z,48.82
2018-05-12T20:25:39.517Z,49.12
2018-05-12T20:28:06.990Z,49.14
2018-05-12T20:30:34.449Z,50.10
2018-05-12T20:33:04.181Z,50.07
2018-05-12T20:35:31.679Z,50.04
2018-05-12T20:37:59.190Z,50.06
2018-05-12T20:40:26.689Z,50.11
2018-05-12T20:42:55.098Z,50.36
2018-05-12T20:45:22.705Z,50.53
2018-05-12T20:47:50.223Z,50.68
2018-05-12T20:50:17.711Z,50.63
2018-05-12T20:52:45.190Z,49.93
2018-05-12T20:55:12.678Z,50.03
2018-05-12T20:57:40.146Z,50.04
2018-05-12T21:00:11.242Z,50.46
2018-05-12T21:02:38.706Z,50.41
2018-05-12T21:05:06.270Z,51.36
2018-05-12T21:07:33.734Z,50.55
2018-05-12T21:10:03.415Z,50.61
2018-05-12T21:12:30.965Z,50.88
2018-05-12T21:14:58.465Z,51.10
2018-05-12T21:17:25.935Z,51.19
2018-05-12T21:19:53.510Z,51.49
2018-05-12T21:22:20.999Z,52.37
2018-05-12T21:24:48.489Z,52.63
2018-05-12T21:27:15.970Z,52.20
2018-05-12T21:29:43.523Z,51.35
2018-05-12T21:32:11.016Z,50.98
2018-05-12T21:34:38.532Z,51.13
2018-05-12T21:37:06.055Z,50.36
2018-05-12T21:39:33.550Z,49.91
2018-05-12T21:42:01.044Z,49.98
2018-05-12T21:44:28.534Z,50.43
2018-05-12T21:46:56.021Z,49.79
2018-05-12T21:49:23.483Z,49.74
2018-05-12T21:51:51.002Z,50.25
2018-05-12T21:54:18.467Z,49.99
2018-05-12T21:56:46.018Z,50.63
2018-05-12T21:59:13.582Z,50.76
2018-05-12T22:01:41.129Z,50.58
2018-05-12T22:04:08.698Z,50.92
2018-05-12T22:06:36.271Z,55.47
2018-05-12T22:09:03.775Z,61.15
2018-05-12T22:11:31.280Z,68.59
2018-05-12T22:13:58.755Z,73.65
2018-05-12T22:16:26.248Z,74.52
2018-05-12T22:18:53.790Z,76.70
2018-05-12T22:21:21.282Z,78.31
2018-05-12T22:23:48.747Z,80.15
2018-05-12T22:26:16.238Z,80.20
2018-05-12T22:28:43.706Z,77.83
2018-05-12T22:31:11.243Z,80.27
2018-05-12T22:33:38.719Z,81.98
2018-05-12T22:36:06.224Z,84.71
2018-05-12T22:38:33.691Z,85.10
2018-05-12T22:41:01.279Z,86.00
2018-05-12T22:43:28.751Z,86.73
2018-05-12T22:45:56.399Z,86.30
2018-05-12T22:48:23.863Z,84.20
2018-05-12T22:50:51.342Z,83.49
2018-05-12T22:53:18.827Z,85.09
2018-05-12T22:55:46.326Z,85.91
2018-05-12T22:58:13.819Z,85.21
2018-05-12T23:00:41.330Z,84.70
2018-05-12T23:03:08.825Z,84.40
2018-05-12T23:05:36.314Z,83.24
2018-05-12T23:08:03.814Z,81.20
2018-05-12T23:10:31.270Z,82.73
2018-05-12T23:12:58.852Z,82.07
2018-05-12T23:15:26.321Z,83.50
2018-05-12T23:17:53.821Z,85.11
2018-05-12T23:20:21.314Z,83.59
2018-05-12T23:22:48.979Z,83.91
2018-05-12T23:25:16.506Z,84.62
2018-05-12T23:27:44.091Z,85.15
2018-05-12T23:30:11.563Z,83.86
2018-05-12T23:32:39.111Z,82.99
2018-05-12T23:35:06.575Z,82.29
2018-05-12T23:37:34.067Z,83.05
2018-05-12T23:40:01.534Z,82.28
2018-05-12T23:42:29.072Z,84.77
2018-05-12T23:44:56.496Z,84.98
2018-05-12T23:47:24.082Z,86.20
2018-05-12T23:49:51.623Z,85.12
2018-05-12T23:52:19.132Z,86.63
2018-05-12T23:54:46.602Z,86.28
2018-05-12T23:57:14.094Z,83.12
2018-05-12T23:59:41.562Z,85.83
